Debbie — 3FSN4 — position and weather

sailwx.info

Track history (hours):
 
Tides and Currents Weather Stations Pressure Air Temp Water Temp Dewpoint Dewpoint Depression Visibility Wind Speed Wind Dir Waves Ship Positions

Debbie

Last reported at 2018-Apr-19 23:20 UTC. Time now 2018-Apr-20 10:57 UTC.
Position N 32°50' E 034°60'.

Length 126 m; draft 8.8 m.

Type: Cargo ship. MMSI: 373623000.

Date/timePositionNaut miles runAvg speedWind from/ knotsBaromVisibWave heightAir tempDewpointWater temp
2018-Apr-19 23:20N 32°50' E 034°60'0 0.0
2018-Apr-19 22:56N 32°50' E 034°60'0 0.0
2018-Apr-19 22:25N 32°50' E 034°60'0 0.0
2018-Apr-19 21:20N 32°50' E 034°60'0 0.0
2018-Apr-19 20:09N 32°50' E 034°60'0 0.0
2018-Apr-19 19:03N 32°50' E 034°60'0 0.0
2018-Apr-19 18:52N 32°50' E 034°60'0 0.0
2018-Apr-19 18:30N 32°50' E 034°60'0 0.0
2018-Apr-19 18:00N 32°50' E 034°60'0 0.0
2018-Apr-18 09:48N 32°50' E 034°60'0 0.0
2018-Apr-17 17:29N 32°50' E 034°60'1 0.2
2018-Apr-17 08:55N 32°52' E 034°59'2 5.1
2018-Apr-17 08:30N 32°53' E 034°57'3 7.0
2018-Apr-17 08:00N 32°53' E 034°53'4 7.2
2018-Apr-17 07:30N 32°54' E 034°49'4 7.1
2018-Apr-17 07:00N 32°55' E 034°45'3 6.0
2018-Apr-17 06:30N 32°55' E 034°42'4 7.1
2018-Apr-17 06:00N 32°56' E 034°37'4 7.3
2018-Apr-17 05:31N 32°57' E 034°33'4 7.1
2018-Apr-17 05:00N 32°58' E 034°29'3 6.3
2018-Apr-17 04:31N 33°01' E 034°29'4 7.1
2018-Apr-17 04:01N 33°05' E 034°29'4 7.1
2018-Apr-17 03:30N 33°09' E 034°29'4 7.1
2018-Apr-17 03:01N 33°12' E 034°29'4 7.3
2018-Apr-17 02:30N 33°16' E 034°30'4 7.4
2018-Apr-17 01:56N 33°20' E 034°30'3 6.9
2018-Apr-17 01:30N 33°23' E 034°30'4 6.9
2018-Apr-17 01:00N 33°26' E 034°30'3 6.8
2018-Apr-17 00:30N 33°30' E 034°31'3 6.9
2018-Apr-17 00:00N 33°33' E 034°31'5 7.0
2018-Apr-16 23:16N 33°38' E 034°31'2 6.9
2018-Apr-16 22:55N 33°41' E 034°31'3 6.9
2018-Apr-16 22:29N 33°44' E 034°31'3 6.8
2018-Apr-16 22:00N 33°47' E 034°32'3 6.8
2018-Apr-16 21:30N 33°50' E 034°32'11 6.9
2018-Apr-16 19:52N 34°02' E 034°33'8 7.2
2018-Apr-16 18:43N 34°10' E 034°34'3 7.4
2018-Apr-16 18:21N 34°13' E 034°34'10 7.5
2018-Apr-16 17:04N 34°22' E 034°34'111.4
2018-Apr-16 17:01N 34°23' E 034°34'5 7.7
2018-Apr-16 16:21N 34°28' E 034°34'3 7.4
2018-Apr-16 16:00N 34°30' E 034°34'4 7.5
2018-Apr-16 15:27N 34°35' E 034°34'  
Track history (hours):
 
Tides and Currents Weather Stations Pressure Air Temp Water Temp Dewpoint Dewpoint Depression Visibility Wind Speed Wind Dir Waves Ship Positions

Debbie

Last reported at 2018-Apr-19 23:20 UTC. Time now 2018-Apr-20 10:57 UTC.
Position N 32°50' E 034°60'.

Length 126 m; draft 8.8 m.

Type: Cargo ship. MMSI: 373623000.

Date/timePositionNaut miles runAvg speedWind from/ knotsBaromVisibWave heightAir tempDewpointWater temp
2018-Apr-19 23:20N 32°50' E 034°60'0 0.0
2018-Apr-19 22:56N 32°50' E 034°60'0 0.0
2018-Apr-19 22:25N 32°50' E 034°60'0 0.0
2018-Apr-19 21:20N 32°50' E 034°60'0 0.0
2018-Apr-19 20:09N 32°50' E 034°60'0 0.0
2018-Apr-19 19:03N 32°50' E 034°60'0 0.0
2018-Apr-19 18:52N 32°50' E 034°60'0 0.0
2018-Apr-19 18:30N 32°50' E 034°60'0 0.0
2018-Apr-19 18:00N 32°50' E 034°60'0 0.0
2018-Apr-18 09:48N 32°50' E 034°60'0 0.0
2018-Apr-17 17:29N 32°50' E 034°60'1 0.2
2018-Apr-17 08:55N 32°52' E 034°59'2 5.1
2018-Apr-17 08:30N 32°53' E 034°57'3 7.0
2018-Apr-17 08:00N 32°53' E 034°53'4 7.2
2018-Apr-17 07:30N 32°54' E 034°49'4 7.1
2018-Apr-17 07:00N 32°55' E 034°45'3 6.0
2018-Apr-17 06:30N 32°55' E 034°42'4 7.1
2018-Apr-17 06:00N 32°56' E 034°37'4 7.3
2018-Apr-17 05:31N 32°57' E 034°33'4 7.1
2018-Apr-17 05:00N 32°58' E 034°29'3 6.3
2018-Apr-17 04:31N 33°01' E 034°29'4 7.1
2018-Apr-17 04:01N 33°05' E 034°29'4 7.1
2018-Apr-17 03:30N 33°09' E 034°29'4 7.1
2018-Apr-17 03:01N 33°12' E 034°29'4 7.3
2018-Apr-17 02:30N 33°16' E 034°30'4 7.4
2018-Apr-17 01:56N 33°20' E 034°30'3 6.9
2018-Apr-17 01:30N 33°23' E 034°30'4 6.9
2018-Apr-17 01:00N 33°26' E 034°30'3 6.8
2018-Apr-17 00:30N 33°30' E 034°31'3 6.9
2018-Apr-17 00:00N 33°33' E 034°31'5 7.0
2018-Apr-16 23:16N 33°38' E 034°31'2 6.9
2018-Apr-16 22:55N 33°41' E 034°31'3 6.9
2018-Apr-16 22:29N 33°44' E 034°31'3 6.8
2018-Apr-16 22:00N 33°47' E 034°32'3 6.8
2018-Apr-16 21:30N 33°50' E 034°32'11 6.9
2018-Apr-16 19:52N 34°02' E 034°33'8 7.2
2018-Apr-16 18:43N 34°10' E 034°34'3 7.4
2018-Apr-16 18:21N 34°13' E 034°34'10 7.5
2018-Apr-16 17:04N 34°22' E 034°34'111.4
2018-Apr-16 17:01N 34°23' E 034°34'5 7.7
2018-Apr-16 16:21N 34°28' E 034°34'3 7.4
2018-Apr-16 16:00N 34°30' E 034°34'4 7.5
2018-Apr-16 15:27N 34°35' E 034°34'  

Dump ship's entire track history